createdAt,value
2018-01-14T00:02:28.115Z,8.00
2018-01-14T00:04:56.377Z,7.70
2018-01-14T00:07:23.884Z,7.70
2018-01-14T00:09:51.410Z,7.70
2018-01-14T00:12:19.764Z,7.70
2018-01-14T00:14:48.095Z,7.70
2018-01-14T00:17:15.872Z,7.60
2018-01-14T00:19:43.948Z,7.30
2018-01-14T00:22:12.036Z,7.00
2018-01-14T00:24:39.809Z,7.50
2018-01-14T00:27:08.292Z,7.40
2018-01-14T00:29:36.357Z,7.20
2018-01-14T00:32:04.705Z,7.10
2018-01-14T00:34:32.520Z,7.00
2018-01-14T00:37:01.100Z,6.90
2018-01-14T00:39:28.578Z,7.10
2018-01-14T00:41:56.848Z,7.00
2018-01-14T00:44:24.348Z,6.90
2018-01-14T00:46:51.835Z,6.90
2018-01-14T00:49:19.318Z,6.80
2018-01-14T00:51:46.850Z,6.80
2018-01-14T00:54:14.405Z,6.90
2018-01-14T00:56:41.984Z,7.00
2018-01-14T00:59:09.484Z,6.90
2018-01-14T01:01:37.718Z,7.00
2018-01-14T01:04:05.203Z,7.00
2018-01-14T01:06:33.491Z,7.10
2018-01-14T01:09:01.756Z,7.90
2018-01-14T01:11:29.246Z,7.80
2018-01-14T01:13:56.756Z,7.80
2018-01-14T01:16:24.241Z,7.60
2018-01-14T01:18:52.520Z,6.90
2018-01-14T01:21:20.779Z,6.80
2018-01-14T01:23:48.252Z,6.70
2018-01-14T01:26:16.496Z,6.60
2018-01-14T01:28:44.056Z,6.50
2018-01-14T01:31:11.540Z,6.60
2018-01-14T01:33:39.016Z,6.40
2018-01-14T01:36:07.277Z,6.50
2018-01-14T01:38:35.246Z,6.50
2018-01-14T01:41:02.717Z,6.50
2018-01-14T01:43:30.979Z,6.30
2018-01-14T01:45:58.461Z,6.30
2018-01-14T01:48:26.717Z,6.30
2018-01-14T01:50:54.220Z,6.20
2018-01-14T01:53:21.700Z,6.30
2018-01-14T01:55:49.171Z,6.20
2018-01-14T01:58:16.674Z,6.30
2018-01-14T02:00:44.910Z,6.10
2018-01-14T02:03:12.376Z,6.00
2018-01-14T02:05:39.868Z,6.10
2018-01-14T02:08:08.108Z,6.30
2018-01-14T02:10:35.583Z,6.20
2018-01-14T02:13:03.089Z,6.20
2018-01-14T02:15:30.559Z,6.10
2018-01-14T02:17:58.029Z,6.10
2018-01-14T02:20:25.524Z,6.00
2018-01-14T02:22:53.761Z,6.00
2018-01-14T02:25:21.236Z,5.90
2018-01-14T02:27:48.793Z,6.10
2018-01-14T02:30:16.280Z,5.90
2018-01-14T02:32:44.520Z,5.80
2018-01-14T02:35:12.043Z,5.70
2018-01-14T02:37:39.595Z,6.00
2018-01-14T02:40:07.832Z,6.20
2018-01-14T02:42:35.329Z,6.20
2018-01-14T02:45:03.577Z,6.10
2018-01-14T02:47:31.118Z,6.00
2018-01-14T02:49:58.624Z,6.20
2018-01-14T02:52:26.868Z,5.70
2018-01-14T02:54:54.340Z,5.60
2018-01-14T02:57:21.833Z,5.60
2018-01-14T02:59:49.360Z,5.60
2018-01-14T03:02:16.836Z,5.50
2018-01-14T03:04:45.101Z,5.50
2018-01-14T03:07:13.345Z,5.50
2018-01-14T03:09:40.815Z,5.40
2018-01-14T03:12:08.308Z,5.40
2018-01-14T03:14:36.553Z,5.30
2018-01-14T03:17:04.027Z,5.20
2018-01-14T03:19:32.307Z,5.40
2018-01-14T03:22:00.548Z,5.30
2018-01-14T03:24:28.016Z,5.20
2018-01-14T03:26:55.513Z,5.20
2018-01-14T03:29:23.755Z,5.10
2018-01-14T03:31:55.375Z,5.10
2018-01-14T03:34:22.875Z,5.10
2018-01-14T03:36:50.412Z,5.00
2018-01-14T03:39:17.888Z,5.10
2018-01-14T03:41:45.395Z,5.00
2018-01-14T03:44:12.897Z,5.00
2018-01-14T03:46:40.402Z,5.00
2018-01-14T03:49:08.664Z,5.20
2018-01-14T03:51:36.901Z,5.10
2018-01-14T03:54:04.383Z,5.00
2018-01-14T03:56:33.373Z,5.20
2018-01-14T03:59:00.844Z,5.20
2018-01-14T04:01:28.328Z,5.10
2018-01-14T04:03:56.588Z,5.50
2018-01-14T04:06:24.830Z,5.50
2018-01-14T04:08:52.305Z,5.50
2018-01-14T04:11:19.833Z,5.20
2018-01-14T04:13:47.312Z,5.10
2018-01-14T04:16:14.785Z,5.10
2018-01-14T04:18:42.338Z,5.10
2018-01-14T04:21:09.815Z,5.20
2018-01-14T04:23:37.290Z,5.60
2018-01-14T04:26:05.696Z,5.50
2018-01-14T04:28:33.173Z,5.40
2018-01-14T04:31:00.644Z,5.20
2018-01-14T04:33:28.147Z,5.20
2018-01-14T04:35:56.406Z,5.10
2018-01-14T04:38:23.885Z,5.00
2018-01-14T04:40:52.150Z,5.20
2018-01-14T04:43:20.404Z,5.20
2018-01-14T04:45:47.875Z,5.20
2018-01-14T04:48:15.381Z,5.30
2018-01-14T04:50:42.856Z,5.40
2018-01-14T04:53:10.339Z,5.40
2018-01-14T04:55:37.835Z,5.40
2018-01-14T04:58:06.244Z,5.20
2018-01-14T05:00:33.720Z,5.10
2018-01-14T05:03:01.226Z,5.00
2018-01-14T05:05:29.466Z,4.80
2018-01-14T05:07:56.944Z,4.70
2018-01-14T05:10:25.216Z,4.90
2018-01-14T05:12:52.683Z,4.80
2018-01-14T05:15:20.161Z,4.90
2018-01-14T05:17:48.428Z,4.70
2018-01-14T05:20:16.704Z,4.70
2018-01-14T05:22:44.950Z,4.60
2018-01-14T05:25:12.447Z,4.60
2018-01-14T05:27:40.692Z,4.50
2018-01-14T05:30:08.166Z,4.50
2018-01-14T05:32:36.426Z,4.60
2018-01-14T05:35:03.892Z,4.60
2018-01-14T05:37:32.124Z,4.60
2018-01-14T05:39:59.643Z,4.60
2018-01-14T05:42:27.115Z,4.70
2018-01-14T05:44:55.380Z,4.60
2018-01-14T05:47:23.648Z,4.50
2018-01-14T05:49:51.121Z,4.50
2018-01-14T05:52:19.372Z,4.40
2018-01-14T05:54:46.878Z,4.30
2018-01-14T05:57:14.347Z,4.40
2018-01-14T05:59:41.832Z,4.40
2018-01-14T06:02:09.334Z,4.50
2018-01-14T06:04:37.568Z,4.50
2018-01-14T06:07:05.088Z,4.50
2018-01-14T06:09:32.578Z,4.60
2018-01-14T06:12:06.988Z,4.50
2018-01-14T06:14:35.811Z,4.40
2018-01-14T06:17:04.088Z,4.30
2018-01-14T06:19:31.557Z,4.20
2018-01-14T06:22:06.040Z,4.20
2018-01-14T06:24:34.116Z,4.10
2018-01-14T06:27:02.135Z,4.00
2018-01-14T06:29:30.744Z,4.00
2018-01-14T06:31:59.537Z,4.20
2018-01-14T06:34:27.381Z,4.10
2018-01-14T06:36:55.932Z,4.20
2018-01-14T06:39:24.025Z,4.10
2018-01-14T06:41:52.311Z,4.10
2018-01-14T06:44:19.789Z,4.10
2018-01-14T06:46:48.033Z,4.20
2018-01-14T06:49:15.865Z,4.10
2018-01-14T06:51:43.901Z,4.20
2018-01-14T06:54:12.416Z,4.10
2018-01-14T06:56:40.431Z,4.00
2018-01-14T06:59:08.877Z,3.90
2018-01-14T07:01:36.628Z,3.80
2018-01-14T07:04:04.164Z,3.90
2018-01-14T07:06:32.398Z,3.80
2018-01-14T07:09:00.862Z,3.80
2018-01-14T07:11:29.061Z,4.00
2018-01-14T07:13:57.056Z,4.10
2018-01-14T07:16:25.434Z,4.00
2018-01-14T07:18:53.388Z,3.90
2018-01-14T07:21:21.247Z,4.00
2018-01-14T07:23:49.179Z,4.00
2018-01-14T07:26:17.066Z,4.10
2018-01-14T07:28:46.731Z,4.10
2018-01-14T07:31:15.267Z,4.10
2018-01-14T07:33:43.190Z,4.00
2018-01-14T07:36:11.968Z,4.20
2018-01-14T07:38:40.260Z,4.20
2018-01-14T07:41:08.524Z,4.10
2018-01-14T07:43:36.836Z,4.10
2018-01-14T07:46:04.717Z,4.10
2018-01-14T07:48:32.219Z,4.10
2018-01-14T07:50:59.704Z,4.10
2018-01-14T07:53:27.184Z,4.10
2018-01-14T07:55:54.681Z,4.10
2018-01-14T07:58:22.171Z,4.20
2018-01-14T08:00:50.426Z,4.20
2018-01-14T08:03:17.929Z,4.10
2018-01-14T08:05:45.549Z,4.20
2018-01-14T08:08:13.023Z,4.30
2018-01-14T08:10:41.312Z,4.30
2018-01-14T08:13:09.567Z,4.30
2018-01-14T08:15:37.083Z,4.30
2018-01-14T08:18:04.589Z,4.40
2018-01-14T08:20:32.082Z,4.50
2018-01-14T08:22:59.614Z,4.40
2018-01-14T08:25:27.879Z,4.60
2018-01-14T08:27:55.361Z,4.50
2018-01-14T08:30:22.840Z,4.60
2018-01-14T08:32:50.356Z,4.80
2018-01-14T08:35:17.836Z,4.80
2018-01-14T08:37:46.079Z,4.80
2018-01-14T08:40:13.622Z,4.80
2018-01-14T08:42:41.107Z,4.80
2018-01-14T08:45:08.601Z,4.80
2018-01-14T08:47:36.127Z,4.90
2018-01-14T08:50:04.373Z,5.10
2018-01-14T08:52:31.846Z,5.00
2018-01-14T08:54:59.357Z,5.10
2018-01-14T08:57:26.829Z,5.10
2018-01-14T08:59:54.318Z,5.20
2018-01-14T09:02:21.825Z,5.30
2018-01-14T09:04:50.112Z,5.60
2018-01-14T09:07:17.594Z,5.50
2018-01-14T09:09:45.156Z,5.70
2018-01-14T09:12:13.375Z,5.90
2018-01-14T09:14:41.683Z,5.90
2018-01-14T09:17:09.145Z,5.80
2018-01-14T09:19:36.630Z,5.90
2018-01-14T09:22:04.104Z,5.90
2018-01-14T09:24:31.595Z,6.10
2018-01-14T09:26:59.847Z,6.00
2018-01-14T09:29:27.368Z,6.00
2018-01-14T09:31:54.892Z,6.50
2018-01-14T09:34:23.137Z,6.20
2018-01-14T09:36:50.613Z,6.20
2018-01-14T09:39:18.115Z,6.20
2018-01-14T09:41:45.636Z,6.30
2018-01-14T09:44:13.129Z,6.60
2018-01-14T09:46:40.644Z,6.50
2018-01-14T09:49:08.123Z,6.40
2018-01-14T09:51:36.372Z,6.20
2018-01-14T09:54:03.877Z,6.20
2018-01-14T09:56:32.209Z,6.30
2018-01-14T09:58:59.684Z,6.30
2018-01-14T10:01:27.181Z,6.50
2018-01-14T10:03:54.675Z,6.40
2018-01-14T10:06:22.168Z,6.30
2018-01-14T10:08:49.728Z,6.40
2018-01-14T10:11:17.229Z,6.40
2018-01-14T10:13:44.701Z,6.40
2018-01-14T10:16:12.203Z,6.40
2018-01-14T10:18:39.676Z,6.60
2018-01-14T10:21:07.921Z,6.50
2018-01-14T10:23:35.423Z,6.50
2018-01-14T10:26:02.910Z,6.70
2018-01-14T10:28:30.397Z,6.60
2018-01-14T10:30:57.902Z,6.50
2018-01-14T10:33:26.185Z,6.90
2018-01-14T10:35:54.450Z,6.90
2018-01-14T10:38:22.708Z,6.80
2018-01-14T10:40:50.179Z,6.80
2018-01-14T10:43:18.425Z,6.90
2018-01-14T10:45:45.928Z,6.80
2018-01-14T10:48:19.594Z,6.80
2018-01-14T10:50:53.386Z,6.90
2018-01-14T10:53:21.848Z,6.80
2018-01-14T10:55:49.596Z,6.90
2018-01-14T10:58:17.387Z,6.90
2018-01-14T11:00:50.538Z,6.90
2018-01-14T11:03:19.845Z,7.10
2018-01-14T11:05:47.316Z,7.00
2018-01-14T11:08:15.928Z,7.40
2018-01-14T11:10:45.027Z,7.30
2018-01-14T11:13:12.536Z,7.80
2018-01-14T11:15:40.782Z,7.70
2018-01-14T11:18:08.368Z,7.60
2018-01-14T11:20:35.844Z,7.50
2018-01-14T11:23:03.318Z,7.40
2018-01-14T11:25:31.587Z,7.50
2018-01-14T11:27:59.064Z,7.50
2018-01-14T11:30:26.557Z,7.70
2018-01-14T11:32:54.101Z,7.80
2018-01-14T11:35:21.609Z,7.70
2018-01-14T11:37:49.881Z,7.50
2018-01-14T11:40:18.148Z,7.30
2018-01-14T11:42:45.620Z,7.30
2018-01-14T11:45:13.863Z,7.50
2018-01-14T11:47:41.356Z,7.50
2018-01-14T11:50:09.744Z,7.70
2018-01-14T11:52:37.281Z,7.70
2018-01-14T11:55:04.778Z,7.50
2018-01-14T11:57:33.392Z,7.90
2018-01-14T12:00:00.900Z,7.80
2018-01-14T12:02:29.171Z,8.10
2018-01-14T12:04:57.454Z,7.50
2018-01-14T12:07:25.700Z,7.30
2018-01-14T12:09:53.208Z,7.20
2018-01-14T12:12:21.852Z,8.60
2018-01-14T12:14:49.336Z,8.60
2018-01-14T12:17:17.604Z,7.50
2018-01-14T12:19:45.856Z,7.40
2018-01-14T12:22:13.324Z,7.30
2018-01-14T12:24:40.833Z,7.40
2018-01-14T12:27:08.322Z,7.20
2018-01-14T12:29:35.816Z,7.20
2018-01-14T12:32:04.112Z,7.30
2018-01-14T12:34:39.257Z,7.30
2018-01-14T12:37:06.837Z,7.40
2018-01-14T12:39:34.317Z,7.30
2018-01-14T12:42:01.788Z,7.30
2018-01-14T12:44:29.335Z,7.30
2018-01-14T12:46:56.918Z,7.30
2018-01-14T12:49:24.399Z,7.30
2018-01-14T12:51:52.660Z,7.40
2018-01-14T12:54:20.136Z,7.30
2018-01-14T12:56:48.376Z,7.50
2018-01-14T12:59:15.868Z,7.40
2018-01-14T13:01:44.117Z,7.40
2018-01-14T13:04:11.648Z,7.40
2018-01-14T13:06:39.142Z,7.40
2018-01-14T13:09:06.630Z,7.40
2018-01-14T13:11:34.949Z,7.60
2018-01-14T13:14:02.444Z,7.50
2018-01-14T13:16:29.929Z,7.50
2018-01-14T13:18:58.167Z,7.60
2018-01-14T13:21:25.659Z,7.60
2018-01-14T13:23:53.899Z,7.60
2018-01-14T13:26:21.375Z,7.50
2018-01-14T13:28:48.895Z,7.60
2018-01-14T13:31:16.377Z,7.60
2018-01-14T13:33:43.968Z,7.60
2018-01-14T13:36:12.245Z,7.90
2018-01-14T13:38:40.500Z,7.80
2018-01-14T13:41:07.985Z,7.80
2018-01-14T13:43:36.247Z,7.90
2018-01-14T13:46:03.721Z,7.80
2018-01-14T13:48:31.963Z,7.90
2018-01-14T13:50:59.465Z,7.80
2018-01-14T13:53:27.708Z,8.00
2018-01-14T13:55:55.272Z,7.90
2018-01-14T13:58:22.768Z,8.00
2018-01-14T14:00:58.011Z,7.90
2018-01-14T14:03:37.076Z,7.80
2018-01-14T14:06:18.227Z,7.80
2018-01-14T14:08:58.740Z,7.80
2018-01-14T14:11:38.124Z,7.80
2018-01-14T14:14:21.750Z,7.80
2018-01-14T14:19:42.043Z,7.80
2018-01-14T14:22:20.327Z,7.70
2018-01-14T14:24:59.845Z,7.70
2018-01-14T14:27:35.549Z,7.70
2018-01-14T14:30:12.601Z,7.90
2018-01-14T14:35:34.200Z,7.90
2018-01-14T14:38:10.367Z,7.80
2018-01-14T14:40:50.327Z,7.80
2018-01-14T14:43:25.840Z,7.90
2018-01-14T14:46:03.262Z,7.90
2018-01-14T14:48:38.805Z,8.00
2018-01-14T14:51:14.715Z,8.00
2018-01-14T14:53:54.394Z,8.00
2018-01-14T14:56:32.390Z,7.90
2018-01-14T14:59:07.313Z,7.90
2018-01-14T15:01:43.857Z,8.00
2018-01-14T15:04:20.175Z,7.90
2018-01-14T15:06:55.268Z,7.90
2018-01-14T15:09:31.643Z,7.90
2018-01-14T15:12:08.643Z,7.80
2018-01-14T15:14:36.669Z,7.70
2018-01-14T15:17:12.694Z,7.80
2018-01-14T15:19:46.079Z,7.70
2018-01-14T15:22:18.617Z,7.80
2018-01-14T15:24:47.486Z,7.70
2018-01-14T15:27:15.267Z,7.80
2018-01-14T15:29:43.731Z,7.90
2018-01-14T15:32:12.419Z,7.80
2018-01-14T15:34:41.120Z,7.70
2018-01-14T15:37:08.648Z,7.80
2018-01-14T15:39:36.364Z,7.70
2018-01-14T15:42:03.865Z,7.70
2018-01-14T15:44:31.496Z,7.70
2018-01-14T15:46:59.012Z,7.70
2018-01-14T15:49:26.611Z,7.70
2018-01-14T15:51:55.500Z,7.80
2018-01-14T15:54:24.005Z,7.70
2018-01-14T15:56:51.884Z,7.60
2018-01-14T15:59:20.856Z,7.70
2018-01-14T16:01:48.466Z,7.70
2018-01-14T16:04:16.095Z,7.70
2018-01-14T16:06:44.920Z,7.60
2018-01-14T16:09:13.581Z,7.60
2018-01-14T16:11:42.222Z,7.70
2018-01-14T16:14:10.226Z,7.60
2018-01-14T16:16:38.646Z,7.60
2018-01-14T16:19:06.823Z,7.60
2018-01-14T16:21:35.961Z,7.60
2018-01-14T16:24:03.651Z,7.60
2018-01-14T16:26:32.552Z,7.50
2018-01-14T16:29:01.489Z,7.50
2018-01-14T16:31:29.255Z,7.40
2018-01-14T16:33:57.634Z,7.50
2018-01-14T16:36:32.540Z,7.40
2018-01-14T16:39:01.091Z,7.40
2018-01-14T16:41:30.411Z,7.40
2018-01-14T16:43:59.498Z,7.30
2018-01-14T16:46:28.687Z,7.30
2018-01-14T16:48:57.419Z,7.30
2018-01-14T16:51:26.717Z,7.20
2018-01-14T16:53:55.298Z,7.20
2018-01-14T16:56:22.804Z,7.20
2018-01-14T16:58:50.579Z,7.20
2018-01-14T17:01:19.116Z,7.10
2018-01-14T17:03:47.193Z,7.00
2018-01-14T17:06:15.709Z,7.00
2018-01-14T17:08:43.543Z,6.90
2018-01-14T17:11:11.374Z,6.80
2018-01-14T17:13:41.008Z,6.70
2018-01-14T17:16:09.115Z,6.70
2018-01-14T17:18:39.216Z,6.60
2018-01-14T17:21:07.238Z,6.60
2018-01-14T17:23:35.517Z,6.70
2018-01-14T17:26:03.873Z,6.60
2018-01-14T17:28:31.489Z,6.50
2018-01-14T17:30:59.363Z,6.60
2018-01-14T17:33:26.935Z,6.60
2018-01-14T17:35:55.048Z,6.50
2018-01-14T17:38:23.323Z,6.50
2018-01-14T17:40:51.339Z,6.50
2018-01-14T17:43:19.519Z,6.50
2018-01-14T17:45:49.164Z,6.60
2018-01-14T17:48:17.971Z,6.50
2018-01-14T17:50:45.822Z,6.50
2018-01-14T17:53:14.764Z,6.40
2018-01-14T17:55:44.283Z,6.50
2018-01-14T17:58:11.924Z,6.40
2018-01-14T18:00:40.034Z,6.20
2018-01-14T18:03:08.476Z,6.20
2018-01-14T18:05:36.286Z,6.10
2018-01-14T18:08:04.448Z,6.20
2018-01-14T18:10:31.940Z,6.20
2018-01-14T18:12:59.420Z,6.20
2018-01-14T18:15:27.754Z,6.20
2018-01-14T18:17:55.296Z,6.10
2018-01-14T18:20:22.783Z,6.30
2018-01-14T18:22:50.339Z,6.30
2018-01-14T18:25:17.836Z,6.10
2018-01-14T18:27:46.089Z,6.10
2018-01-14T18:30:13.580Z,6.00
2018-01-14T18:32:41.849Z,5.90
2018-01-14T18:35:10.124Z,5.90
2018-01-14T18:37:38.384Z,5.90
2018-01-14T18:40:05.970Z,5.90
2018-01-14T18:42:34.447Z,5.90
2018-01-14T18:45:02.700Z,5.90
2018-01-14T18:47:30.372Z,5.80
2018-01-14T18:49:57.912Z,5.80
2018-01-14T18:52:26.236Z,5.80
2018-01-14T18:54:55.313Z,5.70
2018-01-14T18:57:23.439Z,5.70
2018-01-14T18:59:51.812Z,5.80
2018-01-14T19:02:19.646Z,5.80
2018-01-14T19:04:47.842Z,5.80
2018-01-14T19:07:16.413Z,5.70
2018-01-14T19:09:44.758Z,5.70
2018-01-14T19:12:14.087Z,5.60
2018-01-14T19:14:43.528Z,5.70
2018-01-14T19:17:11.143Z,5.60
2018-01-14T19:19:39.472Z,5.60
2018-01-14T19:22:06.960Z,5.50
2018-01-14T19:24:34.527Z,5.50
2018-01-14T19:27:02.922Z,5.40
2018-01-14T19:29:33.017Z,5.40
2018-01-14T19:32:00.573Z,5.40
2018-01-14T19:34:28.901Z,5.40
2018-01-14T19:36:56.422Z,5.30
2018-01-14T19:39:23.984Z,5.50
2018-01-14T19:41:51.497Z,5.50
2018-01-14T19:44:19.029Z,5.50
2018-01-14T19:46:47.305Z,5.60
2018-01-14T19:49:14.777Z,5.50
2018-01-14T19:51:43.105Z,5.70
2018-01-14T19:54:10.611Z,5.60
2018-01-14T19:56:38.879Z,5.70
2018-01-14T19:59:07.116Z,5.70
2018-01-14T20:01:35.107Z,5.60
2018-01-14T20:04:03.061Z,5.50
2018-01-14T20:06:31.740Z,5.40
2018-01-14T20:08:59.461Z,5.40
2018-01-14T20:11:29.297Z,5.40
2018-01-14T20:13:56.937Z,5.40
2018-01-14T20:16:25.531Z,5.50
2018-01-14T20:18:53.639Z,5.40
2018-01-14T20:21:22.203Z,5.60
2018-01-14T20:23:50.295Z,5.70
2018-01-14T20:26:18.694Z,5.70
2018-01-14T20:28:46.420Z,5.70
2018-01-14T20:31:14.102Z,5.60
2018-01-14T20:33:41.728Z,5.60
2018-01-14T20:36:10.108Z,5.40
2018-01-14T20:38:38.554Z,5.30
2018-01-14T20:41:06.887Z,5.30
2018-01-14T20:43:34.594Z,5.30
2018-01-14T20:46:02.209Z,5.30
2018-01-14T20:48:30.367Z,5.30
2018-01-14T20:50:59.398Z,5.30
2018-01-14T20:53:27.158Z,5.30
2018-01-14T20:55:55.056Z,5.20
2018-01-14T20:58:23.528Z,5.30
2018-01-14T21:00:51.185Z,5.40
2018-01-14T21:03:19.545Z,5.10
2018-01-14T21:05:47.419Z,5.20
2018-01-14T21:08:15.111Z,5.20
2018-01-14T21:10:43.148Z,5.20
2018-01-14T21:13:11.900Z,5.30
2018-01-14T21:15:40.785Z,5.30
2018-01-14T21:18:09.249Z,5.20
2018-01-14T21:20:37.374Z,5.30
2018-01-14T21:23:05.969Z,5.20
2018-01-14T21:25:33.444Z,5.10
2018-01-14T21:28:01.194Z,5.10
2018-01-14T21:30:29.986Z,5.20
2018-01-14T21:32:58.006Z,5.20
2018-01-14T21:35:26.141Z,5.30
2018-01-14T21:37:54.256Z,5.20
2018-01-14T21:40:21.894Z,5.20
2018-01-14T21:42:49.663Z,5.10
2018-01-14T21:45:17.761Z,5.10
2018-01-14T21:47:46.362Z,5.10
2018-01-14T21:50:15.272Z,5.10
2018-01-14T21:52:43.400Z,5.00
2018-01-14T21:55:11.533Z,5.10
2018-01-14T21:57:39.157Z,5.00
2018-01-14T22:00:09.959Z,4.90
2018-01-14T22:02:37.586Z,4.90
2018-01-14T22:05:05.855Z,4.80
2018-01-14T22:07:34.321Z,4.90
2018-01-14T22:10:03.851Z,4.70
2018-01-14T22:12:32.130Z,4.70
2018-01-14T22:15:00.102Z,5.00
2018-01-14T22:17:29.088Z,5.00
2018-01-14T22:19:57.146Z,4.90
2018-01-14T22:22:26.416Z,4.70
2018-01-14T22:24:54.118Z,4.60
2018-01-14T22:27:23.185Z,4.60
2018-01-14T22:29:51.131Z,4.50
2018-01-14T22:32:19.169Z,4.70
2018-01-14T22:34:47.150Z,4.90
2018-01-14T22:37:14.789Z,5.00
2018-01-14T22:39:43.187Z,4.80
2018-01-14T22:42:10.741Z,4.70
2018-01-14T22:44:38.481Z,4.60
2018-01-14T22:47:07.252Z,4.50
2018-01-14T22:49:36.643Z,4.60
2018-01-14T22:52:05.453Z,4.80
2018-01-14T22:54:33.259Z,4.80
2018-01-14T22:57:01.086Z,4.90
2018-01-14T22:59:29.359Z,4.80
2018-01-14T23:01:57.079Z,4.80
2018-01-14T23:04:25.021Z,4.70
2018-01-14T23:06:53.535Z,4.80
2018-01-14T23:09:21.495Z,4.70
2018-01-14T23:11:49.890Z,4.80
2018-01-14T23:14:18.010Z,4.70
2018-01-14T23:16:46.431Z,4.30
2018-01-14T23:19:13.926Z,4.30
2018-01-14T23:21:41.748Z,4.20
2018-01-14T23:24:09.520Z,4.10
2018-01-14T23:26:38.490Z,4.10
2018-01-14T23:29:07.352Z,4.00
2018-01-14T23:31:35.986Z,3.90
2018-01-14T23:34:03.992Z,3.80
2018-01-14T23:36:32.051Z,3.70
2018-01-14T23:39:00.109Z,3.50
2018-01-14T23:41:28.449Z,3.30
2018-01-14T23:43:57.247Z,3.50
2018-01-14T23:46:26.312Z,3.40
2018-01-14T23:48:54.530Z,3.30
2018-01-14T23:51:23.471Z,3.20
2018-01-14T23:53:51.529Z,3.30
2018-01-14T23:56:19.915Z,3.20
2018-01-14T23:58:48.317Z,3.30
